Time;durP1;ratioP1;P1;durP2;ratioP2;P2;SDS_P1;SDS_P2;PMS_P1;PMS_P2;Temp;Humidity;BMP_temperature;BMP_pressure;BME280_temperature;BME280_humidity;BME280_pressure;Samples;Min_cycle;Max_cycle;Signal;HPM_P1;HPM_P2
2020/12/10 00:01:56;;;;;;;29.32;19.77;;;;;;;19.07;49.24;100467.44;2297658;77;51459;-78
2020/12/10 00:04:58;;;;;;;35.95;21.15;;;;;;;19.05;49.25;100471.64;2297466;77;50458;-78
2020/12/10 00:08:01;;;;;;;32.28;19.90;;;;;;;19.03;49.25;100468.83;2295752;77;50348;-77
2020/12/10 00:11:03;;;;;;;32.10;19.73;;;;;;;19.01;49.35;100469.52;2294437;77;50033;-78
2020/12/10 00:14:05;;;;;;;31.20;18.87;;;;;;;19.00;49.35;100459.83;2294660;77;50720;-76
2020/12/10 00:17:07;;;;;;;30.57;19.45;;;;;;;19.00;49.34;100467.87;2296250;77;50282;-76
2020/12/10 00:20:10;;;;;;;28.10;19.23;;;;;;;19.00;49.32;100459.31;2297417;77;50715;-77
2020/12/10 00:23:12;;;;;;;30.50;19.15;;;;;;;18.98;49.27;100464.55;2297336;77;51477;-78
2020/12/10 00:26:14;;;;;;;32.38;19.87;;;;;;;18.95;49.35;100458.23;2297436;77;50369;-77
2020/12/10 00:29:16;;;;;;;31.10;19.80;;;;;;;18.95;49.31;100460.39;2297260;77;50803;-78
2020/12/10 00:32:19;;;;;;;28.87;19.05;;;;;;;18.93;49.35;100463.77;2297247;77;51628;-77
2020/12/10 00:35:21;;;;;;;33.78;19.80;;;;;;;18.91;49.42;100462.64;2296654;77;50496;-75
2020/12/10 00:38:23;;;;;;;36.77;19.55;;;;;;;18.90;49.47;100451.58;2296322;77;50344;-76
2020/12/10 00:41:25;;;;;;;33.35;20.70;;;;;;;18.90;49.47;100452.09;2295254;77;51588;-75
2020/12/10 00:44:28;;;;;;;35.65;19.27;;;;;;;18.88;49.44;100459.00;2296539;77;51497;-76
2020/12/10 00:47:30;;;;;;;33.05;20.72;;;;;;;18.85;49.45;100453.99;2296773;77;51584;-77
2020/12/10 00:50:32;;;;;;;34.92;20.80;;;;;;;18.84;49.48;100461.72;2296625;77;51552;-77
2020/12/10 00:53:34;;;;;;;31.55;20.05;;;;;;;18.83;49.52;100464.09;2297054;77;50264;-76
2020/12/10 00:56:37;;;;;;;28.42;19.52;;;;;;;18.82;49.48;100460.25;2297066;77;50409;-76
2020/12/10 00:59:39;;;;;;;32.78;20.75;;;;;;;18.81;49.46;100455.92;2297285;76;50640;-76
2020/12/10 01:02:41;;;;;;;38.23;19.48;;;;;;;18.80;49.46;100457.75;2297009;77;50401;-76
2020/12/10 01:05:43;;;;;;;36.73;20.15;;;;;;;18.78;49.52;100459.81;2296662;77;51602;-77
2020/12/10 01:08:46;;;;;;;32.88;20.23;;;;;;;18.78;49.61;100465.17;2296574;77;52297;-76
2020/12/10 01:11:48;;;;;;;33.85;20.15;;;;;;;18.77;49.57;100452.77;2297004;77;51476;-76
2020/12/10 01:14:50;;;;;;;38.00;20.82;;;;;;;18.77;49.46;100457.31;2295996;77;50759;-75
2020/12/10 01:17:52;;;;;;;29.32;19.02;;;;;;;18.75;49.54;100460.65;2297570;77;50376;-76
2020/12/10 01:20:55;;;;;;;32.35;20.72;;;;;;;18.74;49.52;100445.08;2297045;77;50489;-76
2020/12/10 01:23:57;;;;;;;31.00;19.70;;;;;;;18.73;49.56;100447.45;2297233;77;50574;-77
2020/12/10 01:26:59;;;;;;;35.13;20.17;;;;;;;18.73;49.50;100442.09;2287974;77;50392;-77
2020/12/10 01:30:01;;;;;;;31.55;20.68;;;;;;;18.70;49.62;100447.81;2283342;78;51612;-77
2020/12/10 01:33:04;;;;;;;33.38;20.88;;;;;;;18.70;49.68;100438.42;2283741;78;51474;-77
2020/12/10 01:36:06;;;;;;;32.60;20.45;;;;;;;18.69;49.74;100443.48;2284010;78;51625;-78
2020/12/10 01:39:08;;;;;;;35.17;20.27;;;;;;;18.69;49.67;100436.78;2296037;77;51588;-78
2020/12/10 01:42:10;;;;;;;36.58;20.30;;;;;;;18.68;49.75;100427.09;2297329;77;50372;-77
2020/12/10 01:45:13;;;;;;;34.25;20.80;;;;;;;18.67;49.70;100423.55;2297200;77;50107;-76
2020/12/10 01:48:15;;;;;;;33.45;21.00;;;;;;;18.67;49.65;100430.77;2297015;77;50720;-76
2020/12/10 01:51:17;;;;;;;32.75;20.10;;;;;;;18.64;49.69;100415.90;2297255;77;51470;-77
2020/12/10 01:54:19;;;;;;;31.73;20.23;;;;;;;18.63;49.69;100397.34;2297400;77;51535;-77
2020/12/10 01:57:21;;;;;;;31.70;21.37;;;;;;;18.63;49.67;100405.39;2297380;77;50307;-77
2020/12/10 02:00:24;;;;;;;34.00;20.80;;;;;;;18.61;49.65;100413.60;2297268;76;50271;-78
2020/12/10 02:03:26;;;;;;;32.13;20.32;;;;;;;18.60;49.67;100392.34;2297366;77;51602;-77
2020/12/10 02:06:29;;;;;;;30.48;20.32;;;;;;;18.59;49.65;100394.71;2297255;77;51297;-78
2020/12/10 02:09:31;;;;;;;31.15;20.90;;;;;;;18.57;49.69;100380.66;2297227;77;51492;-77
2020/12/10 02:12:33;;;;;;;34.33;20.97;;;;;;;18.57;49.66;100382.01;2297311;77;50191;-77
2020/12/10 02:15:36;;;;;;;32.38;21.05;;;;;;;18.55;49.62;100370.16;2297253;77;50367;-77
2020/12/10 02:18:38;;;;;;;32.33;21.10;;;;;;;18.54;49.66;100367.14;2297229;77;51593;-77
2020/12/10 02:21:40;;;;;;;32.30;21.60;;;;;;;18.53;49.68;100353.95;2297270;77;50729;-77
2020/12/10 02:24:42;;;;;;;32.30;21.25;;;;;;;18.50;49.67;100353.30;2297334;77;51568;-77
2020/12/10 02:27:45;;;;;;;33.25;21.27;;;;;;;18.53;49.53;100361.98;2297141;77;50374;-77
2020/12/10 02:30:47;;;;;;;31.33;20.48;;;;;;;18.50;49.61;100361.86;2297045;77;51525;-77
2020/12/10 02:33:50;;;;;;;33.55;20.60;;;;;;;18.49;49.57;100359.66;2297174;77;50763;-77
2020/12/10 02:36:52;;;;;;;33.95;20.90;;;;;;;18.49;49.60;100344.11;2297090;77;50119;-75
2020/12/10 02:39:54;;;;;;;34.73;22.10;;;;;;;18.49;49.62;100370.89;2296809;77;51415;-74
2020/12/10 02:43:00;;;;;;;34.35;20.85;;;;;;;18.46;49.60;100349.33;2296870;77;51529;-74
2020/12/10 02:46:02;;;;;;;35.68;21.85;;;;;;;18.47;49.50;100349.67;2296997;77;50745;-76
2020/12/10 02:49:05;;;;;;;32.60;21.20;;;;;;;18.45;49.49;100361.08;2296835;77;50729;-75
2020/12/10 02:52:07;;;;;;;29.50;20.60;;;;;;;18.44;49.51;100352.70;2296691;77;50749;-75
2020/12/10 02:55:09;;;;;;;34.38;21.27;;;;;;;18.41;49.59;100358.96;2296958;77;51546;-75
2020/12/10 02:58:11;;;;;;;39.00;21.90;;;;;;;18.41;49.54;100361.12;2296888;77;51511;-75
2020/12/10 03:01:13;;;;;;;34.83;21.23;;;;;;;18.41;49.54;100359.78;2297501;76;50422;-75
2020/12/10 03:04:16;;;;;;;36.25;21.57;;;;;;;18.41;49.69;100364.31;2297760;77;50394;-75
2020/12/10 03:07:18;;;;;;;34.03;21.82;;;;;;;18.40;49.63;100364.83;2297576;77;50748;-75
2020/12/10 03:10:20;;;;;;;33.02;20.43;;;;;;;18.38;49.61;100362.84;2297333;77;50329;-75
2020/12/10 03:13:22;;;;;;;32.95;21.02;;;;;;;18.36;49.73;100352.00;2297494;77;51531;-74
2020/12/10 03:16:24;;;;;;;32.17;20.85;;;;;;;18.35;49.73;100359.21;2297461;77;51575;-75
2020/12/10 03:19:27;;;;;;;33.35;22.00;;;;;;;18.35;49.65;100356.53;2297334;77;51554;-75
2020/12/10 03:22:29;;;;;;;33.75;20.77;;;;;;;18.34;49.65;100355.37;2296814;77;50298;-75
2020/12/10 03:25:31;;;;;;;35.52;21.82;;;;;;;18.32;49.66;100352.90;2297058;77;50727;-76
2020/12/10 03:28:33;;;;;;;35.65;21.52;;;;;;;18.31;49.67;100345.86;2296979;77;50392;-77
2020/12/10 03:31:36;;;;;;;33.65;21.07;;;;;;;18.31;49.67;100343.19;2296911;77;50740;-77
2020/12/10 03:34:39;;;;;;;34.08;21.55;;;;;;;18.31;49.58;100325.77;2297050;77;51592;-75
2020/12/10 03:37:41;;;;;;;37.85;22.00;;;;;;;18.29;49.58;100333.20;2297094;77;50752;-74
2020/12/10 03:40:43;;;;;;;34.40;21.40;;;;;;;18.28;49.60;100326.16;2297001;77;50348;-74
2020/12/10 03:43:45;;;;;;;32.98;20.88;;;;;;;18.28;49.61;100323.48;2296540;77;51630;-75
2020/12/10 03:46:47;;;;;;;34.30;21.87;;;;;;;18.27;49.73;100315.14;2296943;77;52546;-75
2020/12/10 03:49:52;;;;;;;30.80;20.72;;;;;;;18.25;49.75;100317.17;2296918;77;51459;-76
2020/12/10 03:52:55;;;;;;;32.35;21.87;;;;;;;18.24;49.74;100314.19;2297058;77;50380;-77
2020/12/10 03:55:57;;;;;;;34.53;21.65;;;;;;;18.22;49.71;100315.70;2297037;77;50362;-77
2020/12/10 03:59:00;;;;;;;29.72;20.52;;;;;;;18.20;49.72;100303.52;2296716;77;49924;-76
2020/12/10 04:02:02;;;;;;;35.52;22.55;;;;;;;18.19;49.67;100303.20;2296855;77;51649;-76
2020/12/10 04:05:04;;;;;;;35.75;23.25;;;;;;;18.20;49.69;100302.17;2297173;77;51394;-75
2020/12/10 04:08:06;;;;;;;34.50;21.37;;;;;;;18.19;49.65;100316.08;2297204;77;51279;-76
2020/12/10 04:11:09;;;;;;;35.60;21.97;;;;;;;18.18;49.66;100308.22;2298126;77;50402;-76
2020/12/10 04:14:11;;;;;;;33.28;21.42;;;;;;;18.17;49.68;100314.09;2297417;77;50436;-74
2020/12/10 04:17:13;;;;;;;33.75;21.52;;;;;;;18.18;49.71;100318.94;2296929;77;50791;-74
2020/12/10 04:20:15;;;;;;;37.25;21.48;;;;;;;18.16;49.67;100319.14;2296899;77;51615;-74
2020/12/10 04:23:17;;;;;;;35.88;21.45;;;;;;;18.16;49.67;100323.64;2296873;77;51497;-74
2020/12/10 04:26:21;;;;;;;32.08;21.17;;;;;;;18.14;49.72;100311.80;2296840;77;50689;-74
2020/12/10 04:29:23;;;;;;;34.18;22.13;;;;;;;18.14;49.66;100310.46;2296722;77;51471;-74
2020/12/10 04:32:26;;;;;;;33.08;21.48;;;;;;;18.14;49.65;100310.97;2296781;77;51490;-75
2020/12/10 04:35:28;;;;;;;35.13;21.73;;;;;;;18.11;49.66;100307.31;2296998;77;50378;-75
2020/12/10 04:38:30;;;;;;;33.83;21.97;;;;;;;18.11;49.64;100307.31;2296542;77;50394;-74
2020/12/10 04:41:36;;;;;;;37.60;22.10;;;;;;;18.10;49.68;100300.30;2297087;77;51502;-74
2020/12/10 04:44:37;;;;;;;34.97;21.17;;;;;;;18.09;49.70;100300.82;2297653;77;22920;-76
2020/12/10 04:47:39;;;;;;;35.38;22.45;;;;;;;17.95;49.71;100294.46;2297336;77;50404;-76
2020/12/10 04:50:42;;;;;;;33.45;22.05;;;;;;;18.05;49.73;100311.58;2297425;77;50396;-77
2020/12/10 04:53:44;;;;;;;36.85;22.87;;;;;;;18.06;49.69;100312.73;2297307;77;50620;-76
2020/12/10 04:56:46;;;;;;;34.00;22.27;;;;;;;18.05;49.70;100316.41;2297498;77;50711;-76
2020/12/10 04:59:48;;;;;;;37.17;22.80;;;;;;;18.06;49.62;100318.61;2297408;77;51487;-75
2020/12/10 05:02:50;;;;;;;32.40;21.73;;;;;;;18.04;49.73;100317.44;2297211;76;50483;-75
2020/12/10 05:05:52;;;;;;;33.00;21.75;;;;;;;18.03;49.77;100324.31;2297459;77;50441;-76
2020/12/10 05:08:57;;;;;;;36.10;23.27;;;;;;;18.03;49.70;100324.31;2297093;77;51570;-74
2020/12/10 05:11:59;;;;;;;38.28;22.10;;;;;;;18.01;49.75;100311.13;2295706;76;50443;-74
2020/12/10 05:15:01;;;;;;;36.28;22.65;;;;;;;17.99;49.76;100313.16;2297033;77;50328;-74
2020/12/10 05:18:09;;;;;;;33.55;21.93;;;;;;;17.99;49.76;100322.53;2296970;77;50777;-74
2020/12/10 05:21:11;;;;;;;32.28;21.40;;;;;;;17.98;49.74;100328.91;2295803;76;51516;-74
2020/12/10 05:24:22;;;;;;;33.23;21.40;;;;;;;18.01;49.70;100327.19;2273113;77;51604;-77
2020/12/10 05:27:25;;;;;;;38.10;21.77;;;;;;;18.00;49.68;100322.02;2296983;77;50191;-77
2020/12/10 05:30:27;;;;;;;34.53;21.42;;;;;;;18.02;49.57;100321.33;2297338;77;50307;-76
2020/12/10 05:33:29;;;;;;;37.30;22.48;;;;;;;18.06;49.47;100320.77;2297418;77;51595;-77
2020/12/10 05:36:32;;;;;;;34.43;21.23;;;;;;;18.06;49.47;100318.09;2297242;77;50407;-77
2020/12/10 05:39:34;;;;;;;33.05;21.97;;;;;;;18.08;49.46;100316.55;2297016;77;50422;-76
2020/12/10 05:42:39;;;;;;;34.27;22.48;;;;;;;18.08;49.47;100311.19;2296953;77;50701;-78
2020/12/10 05:45:41;;;;;;;33.38;21.73;;;;;;;18.10;49.49;100320.39;2297240;77;50489;-78
2020/12/10 05:48:44;;;;;;;36.68;22.35;;;;;;;18.06;49.60;100325.30;2297696;77;50712;-79
2020/12/10 05:51:50;;;;;;;36.08;21.23;;;;;;;18.01;49.87;100324.52;2297659;77;51540;-81
2020/12/10 05:54:56;;;;;;;34.45;22.22;;;;;;;18.01;50.10;100323.69;2297620;77;51462;-80
2020/12/10 05:57:57;;;;;;;;;;;;;;;18.03;50.23;100321.15;2300661;77;51479;-79
2020/12/10 06:00:59;;;;;;;30.85;20.62;;;;;;;18.05;50.29;100323.11;2298121;77;50300;-80
2020/12/10 06:04:02;;;;;;;43.00;21.33;;;;;;;18.11;50.19;100326.91;2298197;76;50075;-79
2020/12/10 06:07:04;;;;;;;32.70;20.95;;;;;;;18.13;50.20;100317.33;2298293;77;51546;-80
2020/12/10 06:10:06;;;;;;;34.00;20.97;;;;;;;18.17;50.16;100326.66;2298601;77;50317;-79
2020/12/10 06:13:12;;;;;;;34.83;21.25;;;;;;;18.21;50.13;100327.92;2297904;77;50256;-77
2020/12/10 06:16:18;;;;;;;34.33;20.50;;;;;;;18.27;50.07;100331.20;2297516;77;50399;-77
2020/12/10 06:19:20;;;;;;;42.70;22.50;;;;;;;18.37;50.27;100341.59;2296929;77;50257;-76
2020/12/10 06:22:30;;;;;;;34.40;19.90;;;;;;;18.40;50.79;100342.06;2245189;77;50644;-76
2020/12/10 06:25:32;;;;;;;35.23;19.95;;;;;;;18.51;50.89;100338.05;2296959;77;50670;-76
2020/12/10 06:28:34;;;;;;;34.50;20.60;;;;;;;18.60;50.61;100340.09;2296618;77;51505;-76
2020/12/10 06:31:36;;;;;;;35.80;20.12;;;;;;;18.59;51.00;100348.64;2297045;77;51493;-75
2020/12/10 06:34:46;;;;;;;38.83;20.92;;;;;;;18.63;51.14;100355.30;2297026;77;50404;-75
2020/12/10 06:37:49;;;;;;;32.53;19.12;;;;;;;18.70;51.05;100351.33;2297151;77;51466;-76
2020/12/10 06:40:51;;;;;;;37.55;20.00;;;;;;;18.79;50.61;100344.86;2313541;76;51553;-77
2020/12/10 06:43:53;;;;;;;33.98;19.82;;;;;;;18.81;50.70;100349.53;2261109;76;50541;-77
2020/12/10 06:46:55;;;;;;;36.55;17.67;;;;;;;18.91;50.22;100344.67;2297212;77;50798;-77
2020/12/10 06:49:57;;;;;;;37.70;20.05;;;;;;;18.96;49.94;100339.22;2319924;76;51523;-77
2020/12/10 06:53:21;;;;;;;32.83;18.73;;;;;;;18.93;49.92;100338.61;2304192;75;51246;-77
2020/12/10 06:56:24;;;;;;;34.98;19.70;;;;;;;19.03;49.63;100342.80;2270465;76;51629;-77
2020/12/10 06:59:41;;;;;;;31.65;17.82;;;;;;;19.05;49.56;100340.76;2297497;77;52440;-77
2020/12/10 07:02:43;;;;;;;44.65;19.48;;;;;;;19.05;49.53;100342.10;2297696;75;50762;-75
2020/12/10 07:05:46;;;;;;;38.23;19.40;;;;;;;19.07;49.45;100336.03;2273791;76;51545;-75
2020/12/10 07:09:05;;;;;;;33.58;18.07;;;;;;;19.09;49.40;100341.52;2297002;76;51292;-74
2020/12/10 07:12:10;;;;;;;41.05;20.20;;;;;;;19.09;49.37;100330.80;2259624;78;50313;-74
2020/12/10 07:15:16;;;;;;;38.23;18.37;;;;;;;19.13;49.28;100339.27;2285060;76;50413;-75
2020/12/10 07:18:19;;;;;;;34.65;19.57;;;;;;;19.20;49.07;100331.30;2323114;76;52172;-75
2020/12/10 07:21:26;;;;;;;32.53;18.98;;;;;;;19.23;48.90;100344.30;2323205;76;51533;-75
2020/12/10 07:24:25;;;;;;;30.40;17.67;;;;;;;19.25;48.79;100336.38;2322847;76;22329;-75
2020/12/10 07:27:28;;;;;;;29.35;17.30;;;;;;;19.27;48.73;100332.17;2304001;76;50732;-75
2020/12/10 07:30:30;;;;;;;32.80;16.60;;;;;;;19.28;48.72;100336.50;2296858;77;51459;-75
2020/12/10 07:33:33;;;;;;;32.48;17.70;;;;;;;19.28;48.59;100330.62;2297112;77;50775;-76
2020/12/10 07:36:35;;;;;;;35.60;18.25;;;;;;;19.33;48.50;100332.72;2296982;77;51625;-74
2020/12/10 07:39:37;;;;;;;34.63;18.35;;;;;;;19.36;48.32;100330.98;2296987;77;50337;-75
2020/12/10 07:42:39;;;;;;;33.65;17.92;;;;;;;19.37;48.29;100335.34;2296942;77;50469;-74
2020/12/10 07:45:42;;;;;;;28.12;17.57;;;;;;;19.39;48.25;100332.45;2297021;77;50471;-74
2020/12/10 07:48:46;;;;;;;27.05;17.55;;;;;;;19.39;48.23;100321.20;2314304;76;50658;-78
2020/12/10 07:51:48;;;;;;;30.75;17.32;;;;;;;19.46;48.02;100331.98;2322802;76;50197;-77
2020/12/10 07:54:51;;;;;;;28.05;16.25;;;;;;;19.65;47.72;100327.27;2297048;77;50666;-78
2020/12/10 07:58:03;;;;;;;31.23;16.05;;;;;;;19.71;47.50;100322.47;2298267;77;51549;-78
2020/12/10 08:01:05;;;;;;;25.97;16.60;;;;;;;19.79;47.18;100327.67;2267172;77;51515;-78
2020/12/10 08:04:18;;;;;;;38.53;18.20;;;;;;;19.85;46.95;100330.06;2298214;77;51522;-78
2020/12/10 08:07:20;;;;;;;28.45;17.23;;;;;;;19.89;46.73;100318.43;2299388;76;50476;-77
2020/12/10 08:10:35;;;;;;;28.27;16.80;;;;;;;19.86;46.74;100321.49;2331967;76;51486;-78
2020/12/10 08:13:38;;;;;;;30.37;16.43;;;;;;;19.88;46.61;100316.23;2332450;76;51484;-77
2020/12/10 08:16:41;;;;;;;30.48;16.82;;;;;;;19.93;46.43;100321.02;2332100;76;51594;-77
2020/12/10 08:19:46;;;;;;;30.48;17.77;;;;;;;19.92;46.44;100312.66;2255573;78;51878;-77
2020/12/10 08:22:49;;;;;;;29.80;17.82;;;;;;;19.91;46.56;100314.52;2254387;77;51456;-77
2020/12/10 08:26:11;;;;;;;28.77;17.00;;;;;;;19.96;46.47;100313.41;2254639;79;50190;-78
2020/12/10 08:29:17;;;;;;;26.65;15.90;;;;;;;19.99;46.34;100310.31;2254394;79;50767;-78
2020/12/10 08:32:19;;;;;;;27.95;17.40;;;;;;;19.97;46.40;100313.70;2268857;77;50974;-78
2020/12/10 08:35:21;;;;;;;30.77;16.77;;;;;;;20.03;46.26;100305.36;2283806;77;50373;-76
2020/12/10 08:38:23;;;;;;;32.75;17.65;;;;;;;20.12;45.98;100298.79;2259076;78;50658;-77
2020/12/10 08:41:29;;;;;;;27.42;17.27;;;;;;;20.07;46.08;100299.91;2259405;78;51496;-77
2020/12/10 08:44:51;;;;;;;31.65;17.82;;;;;;;20.10;46.01;100299.50;2259392;78;51437;-78
2020/12/10 08:47:54;;;;;;;25.10;15.48;;;;;;;20.09;45.91;100297.86;2259353;78;51487;-78
2020/12/10 08:50:57;;;;;;;27.05;17.17;;;;;;;20.09;45.98;100296.52;2259276;78;51557;-79
2020/12/10 08:54:00;;;;;;;29.37;16.57;;;;;;;20.06;45.95;100293.38;2286386;77;50295;-78
2020/12/10 08:57:05;;;;;;;27.75;17.30;;;;;;;20.05;46.00;100293.08;2297215;77;50279;-78
2020/12/10 09:00:06;;;;;;;30.20;17.05;;;;;;;20.04;46.06;100292.26;2297321;77;22820;-78
2020/12/10 09:03:08;;;;;;;26.60;17.17;;;;;;;20.06;45.97;100295.55;2297265;76;50370;-78
2020/12/10 09:06:10;;;;;;;26.30;16.52;;;;;;;20.07;45.94;100298.56;2297710;77;50261;-78
2020/12/10 09:09:12;;;;;;;27.82;16.90;;;;;;;20.08;45.96;100310.12;2298653;77;51439;-79
2020/12/10 09:12:14;;;;;;;28.25;16.90;;;;;;;20.09;45.93;100301.03;2299034;77;51496;-79
2020/12/10 09:15:17;;;;;;;24.82;15.93;;;;;;;20.13;45.79;100299.09;2297922;77;50814;-79
2020/12/10 09:18:19;;;;;;;29.52;16.85;;;;;;;20.11;45.85;100297.11;2297389;77;50308;-78
2020/12/10 09:21:21;;;;;;;28.60;16.75;;;;;;;20.12;45.81;100292.08;2297555;77;50705;-78
2020/12/10 09:24:23;;;;;;;28.75;17.48;;;;;;;20.14;45.79;100291.86;2297552;77;49940;-76
2020/12/10 09:27:25;;;;;;;25.75;16.55;;;;;;;20.14;45.82;100290.51;2297477;77;50683;-78
2020/12/10 09:30:28;;;;;;;27.95;15.68;;;;;;;20.18;45.69;100299.31;2297667;77;51489;-82
2020/12/10 09:33:30;;;;;;;25.70;16.57;;;;;;;20.22;45.62;100299.76;2297380;77;52074;-78
2020/12/10 09:36:32;;;;;;;27.77;16.77;;;;;;;20.15;45.76;100302.41;2295547;77;50111;-77
2020/12/10 09:39:35;;;;;;;26.75;16.23;;;;;;;20.20;45.69;100299.13;2295151;77;50332;-78
2020/12/10 09:42:42;;;;;;;32.48;18.23;;;;;;;20.19;45.72;100291.59;2297217;77;50774;-77
2020/12/10 09:45:49;;;;;;;31.37;17.48;;;;;;;20.22;45.74;100281.77;2297058;77;51603;-77
2020/12/10 09:48:48;;;;;;;31.68;17.85;;;;;;;20.19;45.75;100289.39;2296949;77;22436;-77
2020/12/10 09:51:55;;;;;;;30.80;18.73;;;;;;;20.22;45.67;100291.70;2297736;77;50354;-78
2020/12/10 09:55:01;;;;;;;32.42;18.42;;;;;;;20.22;45.67;100284.98;2297202;77;22864;-77
2020/12/10 09:57:58;;;;;;;29.87;17.80;;;;;;;20.24;45.61;100282.89;2296674;76;22285;-77
2020/12/10 10:01:00;;;;;;;30.08;18.87;;;;;;;20.28;45.56;100283.34;2297218;77;51569;-77
2020/12/10 10:04:02;;;;;;;32.95;18.87;;;;;;;20.26;45.61;100286.73;2297448;76;52583;-77
2020/12/10 10:07:06;;;;;;;34.48;19.07;;;;;;;20.27;45.52;100287.89;2297288;77;51479;-76
2020/12/10 10:10:08;;;;;;;35.73;19.80;;;;;;;20.26;45.60;100292.11;2297046;77;51578;-78
2020/12/10 10:13:10;;;;;;;33.50;18.15;;;;;;;20.29;45.43;100282.30;2297418;77;51635;-77
2020/12/10 10:16:13;;;;;;;35.38;20.23;;;;;;;20.28;45.70;100276.09;2297813;77;51659;-78
2020/12/10 10:19:15;;;;;;;36.38;20.08;;;;;;;20.32;45.67;100278.70;2296365;76;51497;-77
2020/12/10 10:22:18;;;;;;;34.53;19.02;;;;;;;20.36;45.63;100284.48;2273796;76;50155;-77
2020/12/10 10:25:20;;;;;;;32.23;19.57;;;;;;;20.40;45.62;100277.16;2315579;76;51526;-77
2020/12/10 10:28:23;;;;;;;31.17;18.48;;;;;;;20.38;45.62;100281.08;2307179;76;50759;-77
2020/12/10 10:31:25;;;;;;;32.58;18.75;;;;;;;20.43;45.49;100271.89;2301196;77;50078;-76
2020/12/10 10:34:27;;;;;;;32.93;18.87;;;;;;;20.42;45.52;100271.08;2298022;77;50328;-76
2020/12/10 10:37:30;;;;;;;37.98;19.48;;;;;;;20.43;45.54;100275.92;2297177;77;50441;-76
2020/12/10 10:40:32;;;;;;;30.90;18.42;;;;;;;20.44;45.47;100270.33;2296774;77;51476;-78
2020/12/10 10:43:35;;;;;;;33.40;19.37;;;;;;;20.46;45.47;100263.42;2297092;77;50231;-77
2020/12/10 10:46:37;;;;;;;30.02;18.70;;;;;;;20.45;45.49;100265.28;2258510;77;51596;-77
2020/12/10 10:49:39;;;;;;;31.42;18.10;;;;;;;20.53;45.28;100266.12;2300598;76;50273;-78
2020/12/10 10:52:42;;;;;;;33.30;19.27;;;;;;;20.52;45.31;100257.20;2322328;76;50376;-78
2020/12/10 10:55:44;;;;;;;29.70;18.67;;;;;;;20.51;45.37;100254.22;2297797;77;50763;-83
2020/12/10 10:58:46;;;;;;;31.80;19.25;;;;;;;20.51;45.38;100254.22;2296522;76;50048;-77
2020/12/10 11:01:48;;;;;;;34.58;19.77;;;;;;;20.55;45.28;100246.59;2297692;77;50705;-78
2020/12/10 11:04:53;;;;;;;31.62;18.62;;;;;;;20.54;45.31;100236.86;2297434;76;51651;-77
2020/12/10 11:07:54;;;;;;;34.10;19.10;;;;;;;20.58;45.22;100245.69;2298436;77;25409;-77
2020/12/10 11:10:57;;;;;;;30.77;18.65;;;;;;;20.60;45.24;100243.63;2297915;77;50403;-77
2020/12/10 11:13:59;;;;;;;28.35;17.82;;;;;;;20.59;45.22;100237.09;2271824;77;50328;-77
2020/12/10 11:17:01;;;;;;;31.15;18.48;;;;;;;20.62;45.14;100229.44;2259581;78;51623;-76
2020/12/10 11:20:05;;;;;;;28.65;18.27;;;;;;;20.60;45.21;100236.91;2259619;78;51474;-78
2020/12/10 11:23:07;;;;;;;29.92;18.17;;;;;;;20.60;45.18;100235.56;2260339;78;25220;-79
2020/12/10 11:26:10;;;;;;;31.57;19.32;;;;;;;20.61;45.17;100231.83;2272969;76;50725;-77
2020/12/10 11:29:12;;;;;;;32.08;19.37;;;;;;;20.63;45.10;100235.14;2331397;76;51435;-78
2020/12/10 11:32:14;;;;;;;30.40;17.95;;;;;;;20.64;45.04;100231.93;2327656;76;50621;-78
2020/12/10 11:35:16;;;;;;;35.65;19.02;;;;;;;20.66;45.04;100223.15;2298024;77;50353;-77
2020/12/10 11:38:18;;;;;;;33.25;18.85;;;;;;;20.65;44.98;100222.33;2297469;77;50457;-78
2020/12/10 11:41:21;;;;;;;31.95;19.35;;;;;;;20.62;45.04;100218.69;2297649;77;52405;-78
2020/12/10 11:44:23;;;;;;;33.98;19.52;;;;;;;20.66;44.98;100211.88;2303364;76;50761;-77
2020/12/10 11:47:26;;;;;;;30.27;18.12;;;;;;;20.63;45.01;100214.98;2316374;76;51431;-78
2020/12/10 11:50:30;;;;;;;30.00;18.20;;;;;;;20.64;44.94;100211.25;2298009;77;50714;-77
2020/12/10 11:53:36;;;;;;;28.98;17.67;;;;;;;20.66;44.89;100209.19;2298044;77;51531;-75
2020/12/10 11:56:37;;;;;;;;;;;;;;;20.68;44.74;100206.80;2323364;76;50657;-77
2020/12/10 11:59:39;;;;;;;30.92;18.50;;;;;;;20.66;44.84;100204.33;2297872;77;50731;-79
2020/12/10 12:02:42;;;;;;;31.68;18.00;;;;;;;20.69;44.71;100205.78;2297847;77;51479;-78
2020/12/10 12:05:44;;;;;;;28.80;17.45;;;;;;;20.68;44.67;100206.30;2297730;76;50225;-78
2020/12/10 12:08:46;;;;;;;32.58;19.95;;;;;;;20.68;44.58;100200.92;2297665;77;50331;-77
2020/12/10 12:11:48;;;;;;;29.10;17.50;;;;;;;20.66;44.58;100198.44;2297637;77;51220;-76
2020/12/10 12:14:50;;;;;;;32.40;19.07;;;;;;;20.69;44.57;100205.78;2264479;77;50611;-78
2020/12/10 12:17:54;;;;;;;29.42;18.23;;;;;;;20.71;44.58;100199.16;2297136;75;51520;-78
2020/12/10 12:20:56;;;;;;;29.05;18.52;;;;;;;20.70;44.59;100196.67;2297025;77;50429;-77
2020/12/10 12:23:58;;;;;;;24.63;16.37;;;;;;;20.71;44.53;100199.16;2297204;77;50689;-77
2020/12/10 12:27:05;;;;;;;33.02;19.87;;;;;;;20.70;44.65;100202.04;2297137;77;50611;-77
2020/12/10 12:30:07;;;;;;;32.33;20.08;;;;;;;20.71;44.59;100195.65;2259364;78;50308;-78
2020/12/10 12:33:09;;;;;;;30.17;18.52;;;;;;;20.74;44.51;100194.70;2259753;78;50722;-78
2020/12/10 12:36:12;;;;;;;28.20;16.80;;;;;;;20.71;44.45;100184.89;2260079;78;51484;-79
2020/12/10 12:39:14;;;;;;;33.63;19.20;;;;;;;20.71;44.35;100187.58;2261547;77;52209;-77
2020/12/10 12:42:16;;;;;;;30.05;17.85;;;;;;;20.66;44.46;100193.05;2302905;76;51517;-78
2020/12/10 12:45:19;;;;;;;31.60;17.73;;;;;;;20.73;44.59;100182.80;2317846;76;50749;-79
2020/12/10 12:48:21;;;;;;;30.82;18.00;;;;;;;20.78;44.73;100174.94;2288521;76;51516;-77
2020/12/10 12:51:23;;;;;;;29.55;17.95;;;;;;;20.77;45.25;100183.52;2309208;76;50575;-77
2020/12/10 12:54:25;;;;;;;29.52;16.80;;;;;;;20.75;46.03;100192.31;2312705;76;50721;-78
2020/12/10 12:57:28;;;;;;;29.48;17.45;;;;;;;20.79;46.00;100189.53;2311154;76;51640;-78
2020/12/10 13:00:30;;;;;;;31.25;18.10;;;;;;;20.85;45.99;100193.23;2256042;79;51684;-77
2020/12/10 13:03:32;;;;;;;32.35;17.23;;;;;;;20.82;46.06;100193.66;2254634;78;50421;-77
2020/12/10 13:06:34;;;;;;;30.08;17.45;;;;;;;20.77;46.04;100190.25;2289973;77;50808;-78
2020/12/10 13:09:38;;;;;;;28.67;17.17;;;;;;;20.79;46.02;100191.40;2257287;78;51557;-78
2020/12/10 13:12:40;;;;;;;32.83;18.02;;;;;;;20.86;45.86;100190.88;2257321;78;50658;-78
2020/12/10 13:15:43;;;;;;;30.75;17.00;;;;;;;20.82;45.87;100182.38;2259657;77;50313;-78
2020/12/10 13:18:45;;;;;;;32.13;17.67;;;;;;;20.86;45.85;100193.56;2310588;76;49879;-78
2020/12/10 13:21:47;;;;;;;28.47;16.82;;;;;;;20.84;45.78;100184.88;2292801;77;50331;-78
2020/12/10 13:24:50;;;;;;;28.38;16.75;;;;;;;20.82;45.77;100181.56;2294556;77;51492;-78
2020/12/10 13:27:52;;;;;;;26.10;16.32;;;;;;;20.84;45.69;100188.91;2297109;77;50293;-77
2020/12/10 13:30:54;;;;;;;28.92;17.90;;;;;;;20.91;45.50;100191.08;2321636;76;51606;-77
2020/12/10 13:33:57;;;;;;;28.42;16.75;;;;;;;20.89;45.49;100182.38;2320983;76;51483;-77
2020/12/10 13:36:59;;;;;;;26.93;17.20;;;;;;;20.88;45.47;100183.40;2309738;76;51427;-77
2020/12/10 13:40:01;;;;;;;27.90;17.32;;;;;;;20.87;45.47;100183.92;2297396;77;50712;-78
2020/12/10 13:43:04;;;;;;;31.25;17.15;;;;;;;20.87;45.47;100187.95;2301859;76;50647;-78
2020/12/10 13:46:06;;;;;;;25.68;15.45;;;;;;;20.88;45.42;100194.16;2323381;76;50409;-77
2020/12/10 13:49:08;;;;;;;30.40;16.60;;;;;;;20.88;45.38;100196.36;2323258;76;51609;-78
2020/12/10 13:52:11;;;;;;;29.30;16.12;;;;;;;20.87;45.37;100191.99;2323719;76;50438;-78